To NAV CANADA Home Page Login to a new session Search on AWWS site Feedback and Comments Disclaimer Vers la page française équivalente Tips FAQ What's new on the site To the Forecasts and Observations / NOTAM section To "File a Flight Plan" website Publications and other links Update of the User's profile FIC Telephone Numbers My Weather Data Folder Route Weather Data Regional Weather Data Local Weather Data To the Forecasts and Observations / NOTAM section
Request Generated 04/02/2015 at 03:07:22 UTC . Weather information available at that time is displayed.

METAR/TAF

SLAVE LAKE/AB    (show WxCam)

METAR CYZH 020300Z AUTO 28005KT 9SM SCT028 SCT140 M01/M01 A3002 RMK
SLP194=
METAR CYZH 020200Z AUTO 31007KT 9SM BKN150 00/M01 A3000 RMK SLP188=
METAR CYZH 020100Z AUTO 30008KT 9SM CLR 01/M01 A2999 RMK SLP182=

TAF CYZH 020038Z 0201/0213 30010KT P6SM SCT100 BKN200
BECMG 0203/0205 29005KT BKN060
FM020500 28008KT P6SM SCT012 BKN025 TEMPO 0205/0211 3SM -SN
BKN012 OVC025
FM021100 29008KT 6SM -SN OVC020 TEMPO 0211/0213 2SM -SN OVC008
RMK FCST BASED ON AUTO OBS. NXT FCST BY 020700Z=
Your time UTC time
Weather data provided by Environment Canada and NAV CANADA